Miami, Florida
Traffic Map
Current Weather Conditions
Miami, Florida
Broken Clouds
Broken Clouds
31°
Feels Like: 35°
Wind Chill: 31° Ceiling: 30000
Heat Index: 35° Visibility: 10mi
Dew Point: 22° Wind: 7mph
Humidity: 59% Direction: 270° (W)
Pressure: 29.87in Gusts: 0mph
Raw Report DataKMIA 271453Z 27006KT 10SM FEW030 BKN300 31/22 A2987 RMK AO2 SLP115 T03110222 51013 $
Traffic Incident Summary
Active as of:
Severity:
Category:
InformationThere was an issue retrieving the traffic information for this location. Please try a different location or try again shortly.
Advertisements
Track Severe Weather on mobile